createdAt,value
2022-12-26T00:00:26.722Z,100643.22
2022-12-26T00:02:53.285Z,100655.91
2022-12-26T00:05:19.795Z,100642.41
2022-12-26T00:07:46.766Z,100649.63
2022-12-26T00:10:13.275Z,100655.16
2022-12-26T00:12:39.756Z,100655.16
2022-12-26T00:15:06.647Z,100658.34
2022-12-26T00:17:33.088Z,100663.09
2022-12-26T00:19:59.647Z,100656.72
2022-12-26T00:22:26.105Z,100652.75
2022-12-26T00:24:52.613Z,100658.28
2022-12-26T00:27:19.285Z,100662.28
2022-12-26T00:29:47.950Z,100660.31
2022-12-26T00:32:14.444Z,100665.47
2022-12-26T00:34:41.156Z,100659.50
2022-12-26T00:37:07.656Z,100661.53
2022-12-26T00:39:34.100Z,100656.38
2022-12-26T00:42:00.589Z,100653.25
2022-12-26T00:44:27.158Z,100653.63
2022-12-26T00:46:53.664Z,100652.84
2022-12-26T00:49:20.390Z,100657.19
2022-12-26T00:51:46.875Z,100665.50
2022-12-26T00:54:13.355Z,100654.81
2022-12-26T00:56:39.835Z,100649.66
2022-12-26T00:59:06.300Z,100657.16
2022-12-26T01:01:33.898Z,100661.19
2022-12-26T01:04:00.677Z,100674.22
2022-12-26T01:06:27.331Z,100669.47
2022-12-26T01:08:53.944Z,100675.03
2022-12-26T01:11:40.375Z,100672.25
2022-12-26T01:14:11.140Z,100680.19
2022-12-26T01:16:39.045Z,100684.56
2022-12-26T01:19:06.407Z,100686.88
2022-12-26T01:21:33.457Z,100685.72
2022-12-26T01:24:00.421Z,100686.88
2022-12-26T01:26:27.236Z,100689.72
2022-12-26T01:28:54.214Z,100686.94
2022-12-26T01:31:21.906Z,100693.25
2022-12-26T01:33:49.100Z,100693.25
2022-12-26T01:36:16.913Z,100692.06
2022-12-26T01:38:43.539Z,100700.03
2022-12-26T01:41:17.187Z,100706.75
2022-12-26T01:43:52.857Z,100707.09
2022-12-26T01:46:23.056Z,100720.19
2022-12-26T01:48:51.277Z,100710.69
2022-12-26T01:51:21.448Z,100703.56
2022-12-26T01:53:52.165Z,100721.81
2022-12-26T01:56:23.937Z,100727.75
2022-12-26T01:59:02.312Z,100726.59
2022-12-26T02:01:32.070Z,100723.41
2022-12-26T02:04:21.137Z,100723.06
2022-12-26T02:06:47.670Z,100718.69
2022-12-26T02:09:14.210Z,100702.47
2022-12-26T02:11:47.449Z,100712.78
2022-12-26T02:14:14.240Z,100715.97
2022-12-26T02:16:41.227Z,100717.94
2022-12-26T02:19:27.189Z,100728.25
2022-12-26T02:22:02.450Z,100727.84
2022-12-26T02:24:31.781Z,100734.59
2022-12-26T02:27:10.594Z,100735.00
2022-12-26T02:30:07.231Z,100719.22
2022-12-26T02:33:11.504Z,100725.94
2022-12-26T02:36:02.716Z,100726.34
2022-12-26T02:38:51.832Z,100725.94
2022-12-26T02:41:28.763Z,100725.50
2022-12-26T02:44:38.721Z,100727.53
2022-12-26T02:47:47.197Z,100734.66
2022-12-26T02:51:06.300Z,100746.91
2022-12-26T02:54:06.932Z,100735.03
2022-12-26T02:57:00.321Z,100735.84
2022-12-26T03:00:04.485Z,100741.84
2022-12-26T03:03:21.581Z,100732.25
2022-12-26T03:06:16.809Z,100745.78
2022-12-26T03:09:11.181Z,100748.13
2022-12-26T03:12:00.679Z,100748.13
2022-12-26T03:14:32.244Z,100748.50
2022-12-26T03:17:20.661Z,100752.88
2022-12-26T03:20:02.606Z,100759.63
2022-12-26T03:22:43.289Z,100757.59
2022-12-26T03:25:48.570Z,100758.78
2022-12-26T03:28:15.825Z,100760.00
2022-12-26T03:30:52.094Z,100756.41
2022-12-26T03:33:43.259Z,100756.06
2022-12-26T03:36:20.855Z,100755.66
2022-12-26T03:39:13.192Z,100763.97
2022-12-26T03:42:18.535Z,100769.53
2022-12-26T03:45:18.966Z,100769.53
2022-12-26T03:48:16.036Z,100769.53
2022-12-26T03:51:05.755Z,100767.16
2022-12-26T03:53:56.757Z,100765.94
2022-12-26T03:56:51.038Z,100769.53
2022-12-26T03:59:55.561Z,100762.81
2022-12-26T04:02:41.202Z,100760.44
2022-12-26T04:05:29.452Z,100773.50
2022-12-26T04:08:21.381Z,100767.94
2022-12-26T04:11:11.714Z,100771.53
2022-12-26T04:14:13.130Z,100769.16
2022-12-26T04:17:32.251Z,100764.41
2022-12-26T04:20:13.715Z,100769.16
2022-12-26T04:23:12.088Z,100764.41
2022-12-26T04:26:08.093Z,100771.53
2022-12-26T04:28:53.376Z,100773.94
2022-12-26T04:31:49.452Z,100779.47
2022-12-26T04:34:39.451Z,100791.72
2022-12-26T04:37:33.460Z,100795.28
2022-12-26T04:40:20.227Z,100787.38
2022-12-26T04:43:46.903Z,100788.19
2022-12-26T04:45:53.282Z,100791.72
2022-12-26T04:48:38.033Z,100800.03
2022-12-26T04:51:04.866Z,100786.97
2022-12-26T04:53:31.332Z,100790.53
2022-12-26T04:55:57.808Z,100796.84
2022-12-26T04:58:26.503Z,100794.50
2022-12-26T05:01:13.074Z,100796.47
2022-12-26T05:03:58.026Z,100796.09
2022-12-26T05:06:42.886Z,100794.47
2022-12-26T05:09:30.212Z,100790.16
2022-12-26T05:11:56.669Z,100780.66
2022-12-26T05:14:23.142Z,100785.41
2022-12-26T05:17:08.485Z,100793.72
2022-12-26T05:19:53.245Z,100788.59
2022-12-26T05:22:39.236Z,100788.56
2022-12-26T05:25:35.019Z,100792.50
2022-12-26T05:28:20.474Z,100799.25
2022-12-26T05:30:47.009Z,100792.53
2022-12-26T05:33:31.859Z,100798.47
2022-12-26T05:35:58.964Z,100798.47
2022-12-26T05:38:25.457Z,100811.53
2022-12-26T05:40:51.917Z,100813.09
2022-12-26T05:43:19.829Z,100812.31
2022-12-26T05:45:46.355Z,100800.84
2022-12-26T05:48:12.873Z,100809.94
2022-12-26T05:50:39.431Z,100805.59
2022-12-26T05:53:05.937Z,100807.97
2022-12-26T05:55:32.601Z,100818.25
2022-12-26T05:58:02.343Z,100810.34
2022-12-26T06:00:30.167Z,100810.72
2022-12-26T06:02:58.923Z,100822.19
2022-12-26T06:05:25.651Z,100814.69
2022-12-26T06:07:52.620Z,100809.94
2022-12-26T06:10:19.106Z,100812.31
2022-12-26T06:12:45.575Z,100804.41
2022-12-26T06:15:12.831Z,100790.56
2022-12-26T06:17:39.799Z,100784.22
2022-12-26T06:20:06.900Z,100782.66
2022-12-26T06:22:33.350Z,100786.22
2022-12-26T06:24:59.814Z,100785.44
2022-12-26T06:27:26.339Z,100773.19
2022-12-26T06:29:52.749Z,100771.19
2022-12-26T06:32:19.503Z,100766.84
2022-12-26T06:34:47.515Z,100777.91
2022-12-26T06:37:14.082Z,100780.72
2022-12-26T06:39:40.529Z,100774.38
2022-12-26T06:42:07.058Z,100777.53
2022-12-26T06:44:33.511Z,100782.66
2022-12-26T06:47:00.055Z,100785.44
2022-12-26T06:49:32.349Z,100790.19
2022-12-26T06:51:59.509Z,100804.78
2022-12-26T06:54:25.989Z,100794.13
2022-12-26T06:56:52.456Z,100810.75
2022-12-26T06:59:18.900Z,100815.47
2022-12-26T07:01:45.589Z,100815.47
2022-12-26T07:04:13.393Z,100839.97
2022-12-26T07:06:40.091Z,100830.50
2022-12-26T07:09:10.791Z,100826.94
2022-12-26T07:11:39.118Z,100827.34
2022-12-26T07:14:05.689Z,100823.38
2022-12-26T07:16:35.234Z,100828.13
2022-12-26T07:19:01.822Z,100836.06
2022-12-26T07:21:28.560Z,100851.84
2022-12-26T07:23:56.199Z,100854.25
2022-12-26T07:26:24.520Z,100866.88
2022-12-26T07:28:55.672Z,100856.59
2022-12-26T07:31:23.374Z,100854.22
2022-12-26T07:33:51.912Z,100856.22
2022-12-26T07:36:19.004Z,100858.19
2022-12-26T07:38:45.925Z,100860.53
2022-12-26T07:41:31.808Z,100861.31
2022-12-26T07:43:58.404Z,100860.16
2022-12-26T07:46:24.907Z,100858.56
2022-12-26T07:48:51.391Z,100839.97
2022-12-26T07:51:17.858Z,100855.81
2022-12-26T07:53:44.331Z,100865.69
2022-12-26T07:56:10.801Z,100875.97
2022-12-26T07:58:37.331Z,100862.09
2022-12-26T08:01:05.075Z,100874.75
2022-12-26T08:03:31.849Z,100871.22
2022-12-26T08:05:59.045Z,100887.44
2022-12-26T08:08:25.808Z,100877.56
2022-12-26T08:11:03.043Z,100867.66
2022-12-26T08:13:31.524Z,100885.44
2022-12-26T08:15:58.819Z,100886.25
2022-12-26T08:18:26.103Z,100898.50
2022-12-26T08:20:52.788Z,100889.75
2022-12-26T08:23:19.290Z,100898.47
2022-12-26T08:25:45.921Z,100920.25
2022-12-26T08:28:12.402Z,100902.44
2022-12-26T08:30:41.256Z,100902.81
2022-12-26T08:33:09.200Z,100885.03
2022-12-26T08:35:36.561Z,100880.63
2022-12-26T08:38:03.866Z,100886.19
2022-12-26T08:40:42.552Z,100888.94
2022-12-26T08:46:05.017Z,100889.34
2022-12-26T08:48:32.569Z,100885.81
2022-12-26T08:51:05.505Z,100892.97
2022-12-26T08:53:35.598Z,100890.94
2022-12-26T08:56:04.897Z,100896.50
2022-12-26T08:58:32.728Z,100904.41
2022-12-26T09:01:07.510Z,100907.56
2022-12-26T09:03:34.316Z,100909.97
2022-12-26T09:06:05.952Z,100920.66
2022-12-26T09:08:34.955Z,100915.13
2022-12-26T09:11:07.156Z,100923.81
2022-12-26T09:13:35.304Z,100915.88
2022-12-26T09:16:10.356Z,100909.53
2022-12-26T09:18:37.528Z,100934.50
2022-12-26T09:21:06.011Z,100922.22
2022-12-26T09:23:32.849Z,100930.94
2022-12-26T09:26:06.761Z,100933.28
2022-12-26T09:28:33.971Z,100938.06
2022-12-26T09:31:02.308Z,100930.13
2022-12-26T09:33:30.703Z,100919.84
2022-12-26T09:36:03.374Z,100913.09
2022-12-26T09:38:31.164Z,100924.59
2022-12-26T09:41:03.615Z,100917.84
2022-12-26T09:43:51.920Z,100944.41
2022-12-26T09:46:52.676Z,100963.00
2022-12-26T09:49:24.219Z,100932.47
2022-12-26T09:52:00.858Z,100944.75
2022-12-26T09:55:02.693Z,100938.78
2022-12-26T09:57:41.776Z,100949.47
2022-12-26T10:00:18.005Z,100950.22
2022-12-26T10:02:53.962Z,100958.59
2022-12-26T10:05:23.108Z,100961.38
2022-12-26T10:08:01.172Z,100957.78
2022-12-26T10:10:46.195Z,100968.91
2022-12-26T10:13:45.101Z,100953.84
2022-12-26T10:16:19.469Z,100955.00
2022-12-26T10:18:57.039Z,100964.53
2022-12-26T10:21:58.905Z,100975.63
2022-12-26T10:24:30.522Z,100969.69
2022-12-26T10:27:05.409Z,100966.16
2022-12-26T10:29:38.742Z,100957.44
2022-12-26T10:32:05.354Z,100947.91
2022-12-26T10:34:59.497Z,100943.53
2022-12-26T10:37:35.614Z,100939.50
2022-12-26T10:40:20.798Z,100941.53
2022-12-26T10:43:26.155Z,100941.13
2022-12-26T10:45:58.437Z,100941.13
2022-12-26T10:48:28.499Z,100946.31
2022-12-26T10:50:55.475Z,100936.75
2022-12-26T10:53:23.040Z,100939.50
2022-12-26T10:55:49.609Z,100931.56
2022-12-26T10:58:21.451Z,100935.53
2022-12-26T11:00:48.085Z,100938.34
2022-12-26T11:03:17.268Z,100930.78
2022-12-26T11:06:08.011Z,100932.78
2022-12-26T11:08:42.951Z,100918.59
2022-12-26T11:11:19.653Z,100932.44
2022-12-26T11:14:00.953Z,100941.16
2022-12-26T11:16:40.380Z,100941.53
2022-12-26T11:19:06.872Z,100941.16
2022-12-26T11:21:33.879Z,100951.84
2022-12-26T11:24:09.618Z,100941.91
2022-12-26T11:26:37.438Z,100940.31
2022-12-26T11:29:12.392Z,100940.69
2022-12-26T11:31:41.590Z,100947.41
2022-12-26T11:34:19.313Z,100941.44
2022-12-26T11:36:48.899Z,100941.06
2022-12-26T11:39:25.898Z,100943.50
2022-12-26T11:41:53.041Z,100937.94
2022-12-26T11:44:27.360Z,100939.13
2022-12-26T11:47:10.498Z,100931.63
2022-12-26T11:50:19.075Z,100937.13
2022-12-26T11:53:05.166Z,100941.13
2022-12-26T11:55:34.919Z,100939.09
2022-12-26T11:58:15.722Z,100937.91
2022-12-26T12:00:43.902Z,100932.38
2022-12-26T12:03:17.296Z,100947.41
2022-12-26T12:05:52.983Z,100946.56
2022-12-26T12:08:40.740Z,100945.69
2022-12-26T12:11:21.993Z,100936.66
2022-12-26T12:13:54.158Z,100939.91
2022-12-26T12:16:41.848Z,100970.22
2022-12-26T12:19:30.245Z,100945.56
2022-12-26T12:22:21.047Z,100941.03
2022-12-26T12:24:53.510Z,100942.22
2022-12-26T12:27:38.308Z,100922.16
2022-12-26T12:30:16.818Z,100944.94
2022-12-26T12:33:15.830Z,100947.53
2022-12-26T12:35:48.542Z,100959.91
2022-12-26T12:38:36.384Z,100986.19
2022-12-26T12:41:21.374Z,100986.31
2022-12-26T12:44:08.078Z,100986.38
2022-12-26T12:46:57.690Z,100993.09
2022-12-26T12:49:41.628Z,100995.03
2022-12-26T12:52:38.315Z,101002.53
2022-12-26T12:55:10.847Z,100990.63
2022-12-26T12:58:09.760Z,101003.22
2022-12-26T13:01:14.912Z,101003.63
2022-12-26T13:03:54.481Z,101020.97
2022-12-26T13:06:29.292Z,101024.06
2022-12-26T13:09:11.596Z,101022.88
2022-12-26T13:11:44.553Z,101035.16
2022-12-26T13:14:20.827Z,101029.53
2022-12-26T13:16:54.085Z,101026.41
2022-12-26T13:19:26.366Z,101034.28
2022-12-26T13:21:56.667Z,101031.09
2022-12-26T13:24:33.367Z,101036.63
2022-12-26T13:27:16.270Z,101037.81
2022-12-26T13:29:47.549Z,101037.41
2022-12-26T13:32:29.642Z,101042.91
2022-12-26T13:34:58.721Z,101060.69
2022-12-26T13:37:40.220Z,101053.97
2022-12-26T13:40:12.839Z,101059.44
2022-12-26T13:43:09.735Z,101043.19
2022-12-26T13:45:47.671Z,101059.56
2022-12-26T13:48:17.105Z,101058.78
2022-12-26T13:50:57.321Z,101073.38
2022-12-26T13:53:26.688Z,101076.84
2022-12-26T13:55:58.958Z,101083.50
2022-12-26T13:59:02.904Z,101089.28
2022-12-26T14:02:01.416Z,101075.03
2022-12-26T14:04:41.207Z,101076.53
2022-12-26T14:07:41.469Z,101103.78
2022-12-26T14:10:37.190Z,101098.97
2022-12-26T14:13:17.321Z,101097.28
2022-12-26T14:15:52.834Z,101115.66
2022-12-26T14:18:49.730Z,101119.25
2022-12-26T14:21:43.989Z,101125.75
2022-12-26T14:24:28.684Z,101136.16
2022-12-26T14:27:13.887Z,101138.56
2022-12-26T14:29:45.505Z,101146.41
2022-12-26T14:32:30.524Z,101149.97
2022-12-26T14:35:21.339Z,101153.09
2022-12-26T14:38:02.952Z,101163.97
2022-12-26T14:40:36.213Z,101152.31
2022-12-26T14:43:26.315Z,101149.72
2022-12-26T14:45:54.174Z,101166.25
2022-12-26T14:48:23.393Z,101163.03
2022-12-26T14:51:03.070Z,101171.16
2022-12-26T14:53:34.624Z,101170.31
2022-12-26T14:56:10.313Z,101173.06
2022-12-26T14:58:45.472Z,101186.53
2022-12-26T15:01:18.799Z,101181.00
2022-12-26T15:04:16.795Z,101184.84
2022-12-26T15:06:56.172Z,101196.69
2022-12-26T15:09:40.630Z,101202.59
2022-12-26T15:12:47.670Z,101206.84
2022-12-26T15:15:34.134Z,101213.16
2022-12-26T15:18:28.629Z,101208.00
2022-12-26T15:21:32.486Z,101197.97
2022-12-26T15:24:17.156Z,101222.44
2022-12-26T15:27:14.578Z,101223.88
2022-12-26T15:30:14.287Z,101223.88
2022-12-26T15:32:52.726Z,101224.44
2022-12-26T15:35:31.386Z,101232.25
2022-12-26T15:38:28.762Z,101241.72
2022-12-26T15:41:18.386Z,101254.66
2022-12-26T15:43:59.810Z,101253.97
2022-12-26T15:46:32.200Z,101254.81
2022-12-26T15:49:19.546Z,101253.41
2022-12-26T15:52:24.638Z,101258.41
2022-12-26T15:55:09.157Z,101264.72
2022-12-26T15:57:53.033Z,101281.97
2022-12-26T16:00:32.441Z,101291.28
2022-12-26T16:03:17.136Z,101285.69
2022-12-26T16:06:08.427Z,101284.75
2022-12-26T16:09:15.520Z,101274.72
2022-12-26T16:11:52.481Z,101282.06
2022-12-26T16:14:38.108Z,101286.84
2022-12-26T16:17:10.509Z,101291.09
2022-12-26T16:19:37.696Z,101300.06
2022-12-26T16:22:25.542Z,101295.28
2022-12-26T16:24:53.836Z,101308.53
2022-12-26T16:27:24.131Z,101301.41
2022-12-26T16:30:02.816Z,101317.94
2022-12-26T16:32:36.160Z,101312.78
2022-12-26T16:35:04.390Z,101316.69
2022-12-26T16:37:31.739Z,101321.84
